Flight Track Log - Related Links

Times and Time Zones

All times are in EDT time to prevent confusion due to time zone crossing. See the N862FE flight status page for this flight to view local times or setup timezone preferences in your user account.

Time Position Orientation Groundspeed Altitude Reporting Facility
EDT Latitude Longitude Course Direction KTS MPH feet Rate Location/Type
Sat 08:48:23 AM 39.3481 -81.4781 277° West 113 130 2,100  Level Indianapolis Center
Sat 08:49:24 AM 39.3528 -81.5169 279° West 111 128 3,000 885 Climbing Indianapolis Center
Sat 08:50:25 AM 39.3564 -81.5578 277° West 112 129 3,900 927 Climbing Indianapolis Center
Sat 08:51:27 AM 39.3594 -81.5978 276° West 113 130 4,900 976 Climbing Indianapolis Center
Sat 08:52:00 AM 39.3616 -81.7435 277° West  Level FlightAware Approximate
Sat 08:52:28 AM 39.3631 -81.6369 277° West 110 127 5,900  Level Indianapolis Center
Sat 08:53:00 AM 39.3662 -81.7953 277° West  Level FlightAware Approximate
Sat 08:53:29 AM 39.3664 -81.6836 275° West 109 125 6,900  Level Indianapolis Center
Sat 08:54:31 AM 39.3703 -81.7228 277° West 110 127 7,800 829 Climbing Indianapolis Center
Sat 08:55:32 AM 39.3731 -81.7622 275° West 110 127 8,600 780 Climbing Indianapolis Center
Sat 08:56:34 AM 39.3756 -81.8006 275° West 108 124 9,400 732 Climbing Indianapolis Center
Sat 08:57:35 AM 39.3797 -81.8406 278° West 112 129 10,100 344 Climbing Indianapolis Center
Sat 08:58:36 AM 39.3850 -81.8908 278° West 139 160 10,100  Level Indianapolis Center
Sat 08:59:38 AM 39.3903 -81.9450 277° West 151 174 10,100  Level Indianapolis Center
Sat 09:00:40 AM 39.3953 -82.0014 277° West 156 180 10,100 -49 Level Indianapolis Center
Sat 09:01:41 AM 39.4006 -82.0522 278° West 144 166 10,000  Descending Indianapolis Center
Sat 09:02:42 AM 39.4064 -82.1028 279° West 142 163 10,100 -57 Climbing Indianapolis Center
Sat 09:03:27 AM 39.4100 -82.1556 275° West 144 166 9,900 -79 Descending Indianapolis Center
Sat 09:03:58 AM 39.4122 -82.1775 277° West 144 166 10,000 77 Climbing Indianapolis Center
Sat 09:04:45 AM 39.4161 -82.2156 278° West 142 163 10,000  Level Indianapolis Center
Sat 09:05:46 AM 39.4217 -82.2678 278° West 146 168 10,000  Level Indianapolis Center
Sat 09:06:48 AM 39.4256 -82.3194 276° West 144 166 10,000  Level Indianapolis Center
Sat 09:07:49 AM 39.4306 -82.3714 277° West 147 169 10,000  Level Indianapolis Center
Sat 09:09:01 AM 39.4367 -82.4411 276° West 145 167 10,000  Level Indianapolis Center
Sat 09:09:52 AM 39.4403 -82.4769 277° West 144 166 10,000  Level Indianapolis Center
Sat 09:10:53 AM 39.4447 -82.5283 276° West 143 165 10,000  Level Indianapolis Center
Sat 09:11:54 AM 39.4492 -82.5786 277° West 140 161 10,000  Level Indianapolis Center
Sat 09:12:56 AM 39.4531 -82.6297 276° West 140 161 10,000  Level Indianapolis Center
Sat 09:13:57 AM 39.4572 -82.6794 276° West 139 160 10,000  Level Indianapolis Center
Sat 09:14:59 AM 39.4614 -82.7311 276° West 142 163 10,000  Level Indianapolis Center
Sat 09:16:00 AM 39.4672 -82.7897 277° West 140 161 10,000  Level Indianapolis Center
Sat 09:17:01 AM 39.4708 -82.8419 275° West 141 162 10,000  Level Indianapolis Center
Sat 09:18:07 AM 39.4761 -82.8969 277° West 143 165 10,000  Level Indianapolis Center
Sat 09:19:04 AM 39.4800 -82.9439 276° West 144 166 10,000  Level Indianapolis Center
Sat 09:20:03 AM 39.4836 -82.9931 275° West 141 162 10,000  Level Indianapolis Center
Sat 09:21:07 AM 39.4889 -83.0450 278° West 141 162 10,000  Level Indianapolis Center
Sat 09:22:09 AM 39.4931 -83.0964 276° West 142 163 10,000  Level Indianapolis Center
Sat 09:23:18 AM 39.4969 -83.1606 275° West 142 163 10,000  Level Indianapolis Center
Sat 09:24:12 AM 39.5017 -83.1992 279° West 143 165 10,000  Level Indianapolis Center
Sat 09:25:13 AM 39.5064 -83.2572 276° West 142 163 10,000  Level Indianapolis Center
Sat 09:26:14 AM 39.5097 -83.3092 275° West 142 163 10,000  Level Indianapolis Center
Sat 09:27:15 AM 39.5153 -83.3589 278° West 142 163 10,000  Level Indianapolis Center
Sat 09:28:16 AM 39.5183 -83.4111 274° West 145 167 10,000  Level Indianapolis Center
Sat 09:29:17 AM 39.5236 -83.4636 277° West 143 165 10,000  Level Indianapolis Center
Sat 09:30:11 AM 39.5253 -83.5100 273° West 145 167 10,000  Level Indianapolis Center
Sat 09:31:18 AM 39.5322 -83.5681 279° West 143 165 10,000  Level Indianapolis Center
Sat 09:32:19 AM 39.5353 -83.6203 274° West 144 166 10,000  Level Indianapolis Center
Sat 09:33:26 AM 39.5400 -83.6761 276° West 145 167 10,000  Level Indianapolis Center
Sat 09:34:27 AM 39.5450 -83.7306 277° West 144 166 10,000  Level Indianapolis Center
Sat 09:35:28 AM 39.5481 -83.7828 274° West 145 167 10,000  Level Indianapolis Center
Sat 09:36:29 AM 39.5511 -83.8347 274° West 145 167 10,000  Level Indianapolis Center
Sat 09:37:23 AM 39.5544 -83.8844 275° West 146 168 10,000  Level Indianapolis Center
Sat 09:38:24 AM 39.5594 -83.9369 277° West 148 170 10,000  Level Indianapolis Center
Sat 09:39:25 AM 39.5625 -83.9889 274° West 146 168 10,000  Level Indianapolis Center
Sat 09:40:37 AM 39.5686 -84.0458 278° West 146 168 10,000  Level Indianapolis Center
Sat 09:41:39 AM 39.5714 -84.1047 274° West 146 168 10,000  Level Indianapolis Center
Sat 09:42:34 AM 39.5747 -84.1517 275° West 147 169 10,000  Level Indianapolis Center
Sat 09:43:34 AM 39.5797 -84.2042 277° West 145 167 10,000  Level Indianapolis Center
Sat 09:44:44 AM 39.5847 -84.2658 276° West 145 167 10,000  Level Indianapolis Center
Sat 09:45:36 AM 39.5869 -84.3142 273° West 147 169 10,000  Level Indianapolis Center
Sat 09:46:37 AM 39.5917 -84.3667 277° West 148 170 10,000  Level Indianapolis Center
Sat 09:47:38 AM 39.5944 -84.4189 274° West 148 170 10,000  Level Indianapolis Center
Sat 09:48:44 AM 39.5989 -84.4769 276° West 147 169 10,000  Level Indianapolis Center
Sat 09:49:45 AM 39.6031 -84.5347 275° West 149 171 10,000  Level Indianapolis Center
Sat 09:50:46 AM 39.6078 -84.5875 277° West 150 173 10,000  Level Indianapolis Center
Sat 09:51:56 AM 39.6125 -84.6419 276° West 148 170 10,000  Level Indianapolis Center
Sat 09:52:57 AM 39.6164 -84.6950 275° West 146 168 10,000  Level Indianapolis Center
Sat 09:54:01 AM 39.6206 -84.7586 275° West 147 169 10,000  Level Indianapolis Center
Sat 09:55:01 AM 39.6242 -84.8119 275° West 149 171 10,000  Level Indianapolis Center
Sat 09:55:57 AM 39.6258 -84.8603 273° West 148 170 10,000  Level Indianapolis Center
Sat 09:56:45 AM 39.6311 -84.9078 278° West 150 173 10,000  Level Indianapolis Center
Sat 09:57:58 AM 39.6347 -84.9683 274° West 148 170 10,000  Level Indianapolis Center
Sat 09:58:59 AM 39.6389 -85.0264 275° West 148 170 10,000  Level Indianapolis Center
Sat 10:00:09 AM 39.6406 -85.0756 273° West 148 170 10,000  Level Indianapolis Center
Sat 10:01:11 AM 39.6453 -85.1383 276° West 147 169 10,000  Level Indianapolis Center
Sat 10:02:13 AM 39.6494 -85.1922 276° West 149 171 10,000  Level Indianapolis Center
Sat 10:03:15 AM 39.6522 -85.2436 274° West 145 167 10,000  Level Indianapolis Center
Sat 10:04:16 AM 39.6558 -85.2972 275° West 149 171 10,000 -244 Level Indianapolis Center
Sat 10:05:18 AM 39.6575 -85.3517 272° West 152 175 9,500 -484 Descending Indianapolis Center
Sat 10:06:20 AM 39.6631 -85.4086 277° West 158 182 9,000 -585 Descending Indianapolis Center
Sat 10:07:21 AM 39.6700 -85.4664 279° West 161 185 8,300 -732 Descending Indianapolis Center
Sat 10:08:23 AM 39.6956 -85.5297 298° West 164 189 7,500 -726 Descending Indianapolis Center
Sat 10:09:25 AM 39.7203 -85.5797 303° West 166 191 6,800 -732 Descending Indianapolis Center
Sat 10:10:26 AM 39.7414 -85.6353 296° West 169 194 6,000 -732 Descending Indianapolis Center
Sat 10:11:28 AM 39.7600 -85.6897 294° West 168 193 5,300 -629 Descending Indianapolis Center
Sat 10:12:30 AM 39.7806 -85.7436 296° West 167 192 4,700 -537 Descending Indianapolis Center
Sat 10:13:31 AM 39.8025 -85.7953 299° West 166 191 4,200 -390 Descending Indianapolis Center
Sat 10:14:33 AM 39.8269 -85.8558 298° West 162 186 3,900 -145 Descending Indianapolis Center
Sat 10:15:35 AM 39.8392 -85.9067 287° West 157 181 3,900  Level Indianapolis Center
Sat 10:16:37 AM 39.8408 -85.9631 272° West 157 181 3,900  Level Indianapolis Center
Sat 10:17:38 AM 39.8422 -86.0194 272° West 156 180 3,900  Level Indianapolis Center
Sat 10:18:40 AM 39.8442 -86.0753 273° West 156 180 3,900  Level Indianapolis Center
Sat 10:19:42 AM 39.8292 -86.1281 250° West 160 184 3,900 -488 Level Indianapolis Center
Sat 10:20:43 AM 39.8011 -86.1750 232° Southwest 166 191 2,900 -976 Descending Indianapolis Center
Sat 10:21:45 AM 39.7600 -86.2286 225° Southwest 171 197 1,900 -871 Descending Indianapolis Center
Sat 10:22:47 AM 39.7319 -86.2656 225° Southwest 172 198 1,100 -532 Descending Indianapolis Center
Sat 10:23:49 AM 39.7156 -86.2836 220° Southwest 106 122 800 -290 Descending Indianapolis Center
Sat 10:25:00 AM 39.7167 -86.2833 270° West  Level FlightAware Approximate

Login

Don't have an account? Register now (free) for customized features, flight alerts, and more!